Time,TemperatureF,DewpointF,PressureIn,WindDirection,WindDirectionDegrees,WindSpeedMPH,WindSpeedGustMPH,Humidity,HourlyPrecipIn,Conditions,Clouds,dailyrainin,SoftwareType,DateUTC
2013-07-25 00:04:00,67.6,57.0,29.83,North,355,0.0,0.0,69,0.00,,,0.00,meteobridge,2013-07-25 06:04:00,
2013-07-25 00:09:00,67.6,57.0,29.83,North,355,0.0,0.9,69,0.00,,,0.00,meteobridge,2013-07-25 06:09:00,
2013-07-25 00:14:00,67.6,57.0,29.83,North,355,0.0,0.0,69,0.00,,,0.00,meteobridge,2013-07-25 06:14:00,
2013-07-25 00:19:00,67.6,57.0,29.83,North,355,0.0,0.0,69,0.00,,,0.00,meteobridge,2013-07-25 06:19:00,
2013-07-25 00:25:00,67.5,57.4,29.83,North,355,0.0,0.0,70,0.00,,,0.00,meteobridge,2013-07-25 06:25:00,
2013-07-25 00:30:00,67.5,57.4,29.83,North,355,0.0,0.0,70,0.00,,,0.00,meteobridge,2013-07-25 06:30:00,
2013-07-25 00:35:00,67.5,57.4,29.83,North,355,0.0,0.0,70,0.00,,,0.00,meteobridge,2013-07-25 06:35:00,
2013-07-25 00:40:00,67.5,57.4,29.84,North,355,0.0,0.0,70,0.00,,,0.00,meteobridge,2013-07-25 06:40:00,
2013-07-25 00:46:00,67.5,57.4,29.83,North,355,0.0,0.0,70,0.00,,,0.00,meteobridge,2013-07-25 06:46:00,
2013-07-25 00:51:00,67.5,57.4,29.83,North,355,0.0,0.0,70,0.00,,,0.00,meteobridge,2013-07-25 06:51:00,
2013-07-25 00:56:00,67.5,57.4,29.84,North,355,0.0,0.9,70,0.00,,,0.00,meteobridge,2013-07-25 06:56:00,
2013-07-25 01:01:00,67.5,57.7,29.84,NNE,13,0.0,2.0,71,0.00,,,0.00,meteobridge,2013-07-25 07:01:00,
2013-07-25 01:06:00,67.5,58.5,29.84,ENE,61,0.9,0.9,73,0.00,,,0.00,meteobridge,2013-07-25 07:06:00,
2013-07-25 01:11:00,67.3,59.5,29.83,SE,145,0.0,2.9,76,0.00,,,0.00,meteobridge,2013-07-25 07:11:00,
2013-07-25 01:16:00,67.1,59.4,29.83,SSE,150,0.9,2.0,76,0.00,,,0.00,meteobridge,2013-07-25 07:16:00,
2013-07-25 01:21:00,66.9,59.2,29.83,SSE,150,0.9,0.9,76,0.00,,,0.00,meteobridge,2013-07-25 07:21:00,
2013-07-25 01:27:00,66.9,59.5,29.83,SSE,150,0.0,0.9,77,0.00,,,0.00,meteobridge,2013-07-25 07:27:00,
2013-07-25 01:32:00,66.7,59.7,29.83,SSE,150,0.0,0.0,78,0.00,,,0.00,meteobridge,2013-07-25 07:32:00,
2013-07-25 01:38:00,66.7,59.7,29.83,SSE,150,0.0,0.0,78,0.00,,,0.00,meteobridge,2013-07-25 07:38:00,
2013-07-25 01:43:00,66.6,59.9,29.83,SSE,150,0.0,0.0,79,0.00,,,0.00,meteobridge,2013-07-25 07:43:00,
2013-07-25 01:48:00,66.6,59.9,29.83,SSE,150,0.0,0.0,79,0.00,,,0.00,meteobridge,2013-07-25 07:48:00,
2013-07-25 01:53:00,66.4,59.7,29.83,SSE,150,0.0,0.0,79,0.00,,,0.00,meteobridge,2013-07-25 07:53:00,
2013-07-25 01:58:00,66.4,59.7,29.83,SSE,150,0.0,0.0,79,0.00,,,0.00,meteobridge,2013-07-25 07:58:00,
2013-07-25 02:03:00,66.4,60.1,29.83,SSE,150,0.0,0.9,80,0.00,,,0.00,meteobridge,2013-07-25 08:03:00,
2013-07-25 02:08:00,66.6,59.5,29.83,South,180,0.0,2.0,78,0.00,,,0.00,meteobridge,2013-07-25 08:08:00,
2013-07-25 02:14:00,66.6,58.8,29.84,SSE,164,2.0,2.9,76,0.00,,,0.00,meteobridge,2013-07-25 08:14:00,
2013-07-25 02:19:00,66.7,58.6,29.84,SSE,155,0.9,4.0,75,0.00,,,0.00,meteobridge,2013-07-25 08:19:00,
2013-07-25 02:24:00,66.9,58.3,29.84,SSE,155,0.0,0.9,74,0.00,,,0.00,meteobridge,2013-07-25 08:24:00,
2013-07-25 02:29:00,66.9,58.8,29.84,SSE,155,0.9,0.9,75,0.00,,,0.00,meteobridge,2013-07-25 08:29:00,
2013-07-25 02:34:00,66.9,58.8,29.84,SSE,155,0.0,0.9,75,0.00,,,0.00,meteobridge,2013-07-25 08:34:00,
2013-07-25 02:39:00,66.9,58.8,29.84,SSE,155,0.0,0.9,75,0.00,,,0.00,meteobridge,2013-07-25 08:39:00,
2013-07-25 02:44:00,66.9,59.2,29.84,SSE,159,0.0,2.0,76,0.00,,,0.00,meteobridge,2013-07-25 08:44:00,
2013-07-25 02:49:00,66.9,59.2,29.84,SSW,211,0.9,2.0,76,0.00,,,0.00,meteobridge,2013-07-25 08:49:00,
2013-07-25 02:55:00,66.7,59.0,29.85,SSW,211,0.0,2.0,76,0.00,,,0.00,meteobridge,2013-07-25 08:55:00,
2013-07-25 03:00:00,66.7,59.0,29.85,SSW,211,0.9,0.9,76,0.00,,,0.00,meteobridge,2013-07-25 09:00:00,
2013-07-25 03:05:00,66.6,58.8,29.85,SSW,211,0.9,0.9,76,0.00,,,0.00,meteobridge,2013-07-25 09:05:00,
2013-07-25 03:10:00,66.6,58.5,29.85,South,169,4.0,4.0,75,0.00,,,0.00,meteobridge,2013-07-25 09:10:00,
2013-07-25 03:15:00,66.7,58.6,29.85,SSE,168,0.0,0.9,75,0.00,,,0.00,meteobridge,2013-07-25 09:15:00,
2013-07-25 03:20:00,66.6,58.5,29.85,SSE,167,0.0,2.0,75,0.00,,,0.00,meteobridge,2013-07-25 09:20:00,
2013-07-25 03:25:00,66.6,58.8,29.85,SW,236,2.0,2.0,76,0.00,,,0.00,meteobridge,2013-07-25 09:25:00,
2013-07-25 03:30:00,66.6,58.8,29.85,SSW,206,0.0,0.9,76,0.00,,,0.00,meteobridge,2013-07-25 09:30:00,
2013-07-25 03:35:00,66.4,58.6,29.84,SSW,202,0.9,2.9,76,0.00,,,0.00,meteobridge,2013-07-25 09:35:00,
2013-07-25 03:40:00,66.4,58.6,29.85,SSW,195,0.9,0.9,76,0.00,,,0.00,meteobridge,2013-07-25 09:40:00,
2013-07-25 03:45:00,66.4,59.0,29.85,SSW,194,0.9,2.0,77,0.00,,,0.00,meteobridge,2013-07-25 09:45:00,
2013-07-25 03:50:00,66.4,59.0,29.85,SE,128,0.9,2.9,77,0.00,,,0.00,meteobridge,2013-07-25 09:50:00,
2013-07-25 03:56:00,66.4,59.0,29.84,SE,142,0.9,0.9,77,0.00,,,0.00,meteobridge,2013-07-25 09:56:00,
2013-07-25 04:01:00,66.4,59.0,29.84,SE,144,0.9,2.0,77,0.00,,,0.00,meteobridge,2013-07-25 10:01:00,
2013-07-25 04:06:00,66.4,59.0,29.84,SE,138,0.0,2.0,77,0.00,,,0.00,meteobridge,2013-07-25 10:06:00,
2013-07-25 04:11:00,66.4,59.0,29.85,SSE,148,2.9,4.9,77,0.00,,,0.00,meteobridge,2013-07-25 10:11:00,
2013-07-25 04:16:00,66.6,59.5,29.85,SE,139,0.9,4.9,78,0.00,,,0.00,meteobridge,2013-07-25 10:16:00,
2013-07-25 04:21:00,66.6,59.5,29.85,SSE,148,2.9,2.9,78,0.00,,,0.00,meteobridge,2013-07-25 10:21:00,
2013-07-25 04:26:00,66.6,59.2,29.85,SSE,149,0.0,2.0,77,0.00,,,0.00,meteobridge,2013-07-25 10:26:00,
2013-07-25 04:31:00,66.6,59.5,29.85,SSE,163,0.9,4.0,78,0.00,,,0.00,meteobridge,2013-07-25 10:31:00,
2013-07-25 04:36:00,66.6,59.2,29.84,SSE,152,4.0,4.0,77,0.00,,,0.00,meteobridge,2013-07-25 10:36:00,
2013-07-25 04:41:00,66.6,59.5,29.84,SSE,151,2.9,4.0,78,0.00,,,0.00,meteobridge,2013-07-25 10:41:00,
2013-07-25 04:47:00,66.6,59.2,29.84,SSE,150,4.9,6.0,77,0.00,,,0.00,meteobridge,2013-07-25 10:47:00,
2013-07-25 04:52:00,66.6,59.2,29.84,SE,126,0.9,4.0,77,0.00,,,0.00,meteobridge,2013-07-25 10:52:00,
2013-07-25 04:57:00,66.6,59.2,29.84,SE,136,0.9,2.0,77,0.00,,,0.00,meteobridge,2013-07-25 10:57:00,
2013-07-25 05:02:00,66.6,58.8,29.84,SSE,155,0.0,4.0,76,0.00,,,0.00,meteobridge,2013-07-25 11:02:00,
2013-07-25 05:07:00,66.6,58.8,29.84,SSE,155,0.0,0.0,76,0.00,,,0.00,meteobridge,2013-07-25 11:07:00,
2013-07-25 05:12:00,66.4,58.6,29.84,SE,124,0.0,0.9,76,0.00,,,0.00,meteobridge,2013-07-25 11:12:00,
2013-07-25 05:17:00,66.4,58.6,29.84,SE,124,0.0,0.0,76,0.00,,,0.00,meteobridge,2013-07-25 11:17:00,
2013-07-25 05:22:00,66.0,58.6,29.84,ESE,123,0.0,0.0,77,0.00,,,0.00,meteobridge,2013-07-25 11:22:00,
2013-07-25 05:27:00,65.8,58.5,29.84,SE,124,0.0,0.0,77,0.00,,,0.00,meteobridge,2013-07-25 11:27:00,
2013-07-25 05:32:00,65.8,58.8,29.84,SE,124,0.0,0.0,78,0.00,,,0.00,meteobridge,2013-07-25 11:32:00,
2013-07-25 05:37:00,65.7,58.6,29.84,ESE,123,0.0,0.0,78,0.00,,,0.00,meteobridge,2013-07-25 11:37:00,
2013-07-25 05:43:00,65.3,58.6,29.83,ESE,123,0.0,0.0,79,0.00,,,0.00,meteobridge,2013-07-25 11:43:00,
2013-07-25 05:48:00,65.1,58.5,29.83,ESE,123,0.0,0.0,79,0.00,,,0.00,meteobridge,2013-07-25 11:48:00,
2013-07-25 05:53:00,64.9,58.6,29.84,SE,124,0.0,0.0,80,0.00,,,0.00,meteobridge,2013-07-25 11:53:00,
2013-07-25 05:58:00,64.8,58.5,29.84,SE,124,0.0,0.0,80,0.00,,,0.00,meteobridge,2013-07-25 11:58:00,
2013-07-25 06:03:00,64.8,58.8,29.85,ESE,123,0.0,0.0,81,0.00,,,0.00,meteobridge,2013-07-25 12:03:00,
2013-07-25 06:08:00,64.8,58.8,29.85,SE,124,0.0,0.0,81,0.00,,,0.00,meteobridge,2013-07-25 12:08:00,
2013-07-25 06:13:00,64.8,58.8,29.85,SE,124,0.0,0.0,81,0.00,,,0.00,meteobridge,2013-07-25 12:13:00,
2013-07-25 06:19:00,64.6,58.6,29.85,ESE,123,0.0,0.9,81,0.00,,,0.00,meteobridge,2013-07-25 12:19:00,
2013-07-25 06:24:00,64.8,58.8,29.85,SSE,163,0.0,0.0,81,0.00,,,0.00,meteobridge,2013-07-25 12:24:00,
2013-07-25 06:29:00,64.8,58.5,29.85,SSE,163,0.0,0.0,80,0.00,,,0.00,meteobridge,2013-07-25 12:29:00,
2013-07-25 06:34:00,64.9,58.3,29.85,SSE,163,0.0,0.0,79,0.00,,,0.00,meteobridge,2013-07-25 12:34:00,
2013-07-25 06:40:00,65.1,58.5,29.85,SSE,163,0.0,0.0,79,0.00,,,0.00,meteobridge,2013-07-25 12:40:00,
2013-07-25 06:45:00,65.5,58.8,29.85,SSE,163,0.0,0.0,79,0.00,,,0.00,meteobridge,2013-07-25 12:45:00,
2013-07-25 06:50:00,65.5,58.5,29.85,SSE,163,0.0,0.0,78,0.00,,,0.00,meteobridge,2013-07-25 12:50:00,
2013-07-25 06:55:00,65.5,58.5,29.85,SSE,163,0.0,0.0,78,0.00,,,0.00,meteobridge,2013-07-25 12:55:00,
2013-07-25 07:00:00,65.7,58.6,29.85,SSE,163,0.0,0.0,78,0.00,,,0.00,meteobridge,2013-07-25 13:00:00,
2013-07-25 07:05:00,66.0,58.6,29.85,SSE,163,0.0,0.0,77,0.00,,,0.00,meteobridge,2013-07-25 13:05:00,
2013-07-25 07:11:00,66.4,58.6,29.85,SSE,163,0.0,0.0,76,0.00,,,0.00,meteobridge,2013-07-25 13:11:00,
2013-07-25 07:16:00,66.6,58.8,29.85,SSE,163,0.0,0.9,76,0.00,,,0.00,meteobridge,2013-07-25 13:16:00,
2013-07-25 07:21:00,66.9,58.8,29.86,SSE,163,0.0,0.9,75,0.00,,,0.00,meteobridge,2013-07-25 13:21:00,
2013-07-25 07:26:00,66.9,58.3,29.86,SSE,161,0.0,0.0,74,0.00,,,0.00,meteobridge,2013-07-25 13:26:00,
2013-07-25 07:31:00,67.1,58.5,29.86,SSE,161,0.0,0.0,74,0.00,,,0.00,meteobridge,2013-07-25 13:31:00,
2013-07-25 07:36:00,67.3,58.6,29.86,SSE,161,0.0,0.9,74,0.00,,,0.00,meteobridge,2013-07-25 13:36:00,
2013-07-25 07:41:00,67.5,58.8,29.86,SSE,161,0.0,0.9,74,0.00,,,0.00,meteobridge,2013-07-25 13:41:00,
2013-07-25 07:46:00,67.5,58.5,29.86,SSE,161,0.0,0.9,73,0.00,,,0.00,meteobridge,2013-07-25 13:46:00,
2013-07-25 07:51:00,67.6,58.6,29.86,SSE,161,0.0,0.0,73,0.00,,,0.00,meteobridge,2013-07-25 13:51:00,
2013-07-25 07:56:00,68.2,58.8,29.86,SSE,161,0.0,0.0,72,0.00,,,0.00,meteobridge,2013-07-25 13:56:00,
2013-07-25 08:02:00,68.9,59.2,29.86,SSE,161,0.0,2.0,71,0.00,,,0.00,meteobridge,2013-07-25 14:02:00,
2013-07-25 08:07:00,69.4,59.5,29.87,SW,215,0.0,2.9,71,0.00,,,0.00,meteobridge,2013-07-25 14:07:00,
2013-07-25 08:12:00,70.0,59.7,29.87,SSW,206,0.9,0.9,70,0.00,,,0.00,meteobridge,2013-07-25 14:12:00,
2013-07-25 08:17:00,69.8,59.2,29.87,SSW,196,0.9,6.0,69,0.00,,,0.00,meteobridge,2013-07-25 14:17:00,
2013-07-25 08:22:00,70.2,59.9,29.87,SW,218,0.9,0.9,70,0.00,,,0.00,meteobridge,2013-07-25 14:22:00,
2013-07-25 08:27:00,70.3,59.4,29.87,West,266,0.9,4.0,68,0.00,,,0.00,meteobridge,2013-07-25 14:27:00,
2013-07-25 08:32:00,70.3,58.8,29.88,SSW,211,4.0,4.9,67,0.00,,,0.00,meteobridge,2013-07-25 14:32:00,
2013-07-25 08:37:00,70.2,58.6,29.88,SW,221,2.0,4.9,67,0.00,,,0.00,meteobridge,2013-07-25 14:37:00,
2013-07-25 08:42:00,70.2,58.6,29.88,SSW,198,2.0,2.0,67,0.00,,,0.00,meteobridge,2013-07-25 14:42:00,
2013-07-25 08:47:00,70.2,58.6,29.88,SW,231,0.9,2.9,67,0.00,,,0.00,meteobridge,2013-07-25 14:47:00,
2013-07-25 08:52:00,70.5,57.7,29.88,WSW,242,0.0,2.0,64,0.00,,,0.00,meteobridge,2013-07-25 14:52:00,
2013-07-25 08:57:00,71.8,59.7,29.88,SW,220,2.9,4.9,66,0.00,,,0.00,meteobridge,2013-07-25 14:57:00,
2013-07-25 09:02:00,72.7,59.4,29.88,SW,225,2.9,2.9,63,0.00,,,0.00,meteobridge,2013-07-25 15:02:00,
2013-07-25 09:07:00,71.8,59.0,29.88,SSW,205,2.9,4.9,64,0.00,,,0.00,meteobridge,2013-07-25 15:07:00,
2013-07-25 09:12:00,71.2,58.8,29.88,SW,234,4.0,6.9,65,0.00,,,0.00,meteobridge,2013-07-25 15:12:00,
2013-07-25 09:17:00,70.7,58.8,29.88,SSW,209,4.0,4.9,66,0.00,,,0.00,meteobridge,2013-07-25 15:17:00,
2013-07-25 09:22:00,70.3,58.5,29.88,SSW,199,0.0,6.0,66,0.00,,,0.00,meteobridge,2013-07-25 15:22:00,
2013-07-25 09:28:00,71.1,59.2,29.88,WNW,284,0.0,0.9,66,0.00,,,0.00,meteobridge,2013-07-25 15:28:00,
2013-07-25 09:33:00,71.2,57.9,29.88,SSW,204,0.9,6.0,63,0.00,,,0.00,meteobridge,2013-07-25 15:33:00,
2013-07-25 09:38:00,72.5,58.3,29.88,SW,223,0.9,6.9,61,0.00,,,0.00,meteobridge,2013-07-25 15:38:00,
2013-07-25 09:43:00,72.3,58.1,29.89,SW,215,2.0,4.0,61,0.00,,,0.00,meteobridge,2013-07-25 15:43:00,
2013-07-25 09:48:00,71.8,58.1,29.88,SW,221,2.0,2.9,62,0.00,,,0.00,meteobridge,2013-07-25 15:48:00,
2013-07-25 09:53:00,71.4,58.1,29.88,SSE,160,2.9,6.9,63,0.00,,,0.00,meteobridge,2013-07-25 15:53:00,
2013-07-25 09:58:00,72.1,58.5,29.88,SSW,195,2.9,6.9,62,0.00,,,0.00,meteobridge,2013-07-25 15:58:00,
2013-07-25 10:03:00,72.0,58.6,29.88,SSE,164,2.0,6.9,63,0.00,,,0.00,meteobridge,2013-07-25 16:03:00,
2013-07-25 10:08:00,72.1,58.8,29.88,SE,128,4.9,6.9,63,0.00,,,0.00,meteobridge,2013-07-25 16:08:00,
2013-07-25 10:13:00,71.6,58.3,29.88,SSE,166,0.0,4.0,63,0.00,,,0.00,meteobridge,2013-07-25 16:13:00,
2013-07-25 10:19:00,71.8,59.4,29.88,WSW,237,2.0,6.0,65,0.00,,,0.00,meteobridge,2013-07-25 16:19:00,
2013-07-25 10:24:00,71.8,59.0,29.88,WSW,252,4.0,6.9,64,0.00,,,0.00,meteobridge,2013-07-25 16:24:00,
2013-07-25 10:29:00,73.0,59.2,29.88,SSE,167,0.9,2.9,62,0.00,,,0.00,meteobridge,2013-07-25 16:29:00,
2013-07-25 10:34:00,73.0,59.2,29.89,SSW,192,2.9,6.0,62,0.00,,,0.00,meteobridge,2013-07-25 16:34:00,
2013-07-25 10:39:00,73.8,59.5,29.89,SSW,200,2.9,4.0,61,0.00,,,0.00,meteobridge,2013-07-25 16:39:00,
2013-07-25 10:44:00,73.6,58.8,29.89,SW,218,4.0,8.1,60,0.00,,,0.00,meteobridge,2013-07-25 16:44:00,
2013-07-25 10:49:00,72.7,58.8,29.89,SSE,159,2.0,6.0,62,0.00,,,0.00,meteobridge,2013-07-25 16:49:00,
2013-07-25 10:54:00,73.2,59.0,29.89,South,190,0.0,6.0,61,0.00,,,0.00,meteobridge,2013-07-25 16:54:00,
2013-07-25 10:59:00,74.5,59.7,29.89,SSW,204,2.9,6.0,60,0.00,,,0.00,meteobridge,2013-07-25 16:59:00,
2013-07-25 11:04:00,74.5,59.2,29.89,ESE,121,2.9,6.9,59,0.00,,,0.00,meteobridge,2013-07-25 17:04:00,
2013-07-25 11:09:00,74.3,59.5,29.89,SSW,192,4.0,4.9,60,0.00,,,0.00,meteobridge,2013-07-25 17:09:00,
2013-07-25 11:14:00,73.8,59.5,29.89,SE,146,2.0,4.9,61,0.00,,,0.00,meteobridge,2013-07-25 17:14:00,
2013-07-25 11:19:00,74.3,59.0,29.89,SE,128,2.9,8.9,59,0.00,,,0.00,meteobridge,2013-07-25 17:19:00,
2013-07-25 11:24:00,74.5,59.2,29.89,SSE,164,0.9,6.9,59,0.00,,,0.00,meteobridge,2013-07-25 17:24:00,
2013-07-25 11:29:00,75.0,58.8,29.89,SSE,167,2.9,6.9,57,0.00,,,0.00,meteobridge,2013-07-25 17:29:00,
2013-07-25 11:34:00,75.6,59.2,29.89,SW,223,2.0,8.1,57,0.00,,,0.00,meteobridge,2013-07-25 17:34:00,
2013-07-25 11:39:00,75.6,58.8,29.89,SSE,155,0.9,6.9,56,0.00,,,0.00,meteobridge,2013-07-25 17:39:00,
2013-07-25 11:44:00,75.0,59.2,29.88,South,170,2.0,4.0,58,0.00,,,0.00,meteobridge,2013-07-25 17:44:00,
2013-07-25 11:49:00,75.2,59.4,29.88,SSE,157,6.0,6.0,58,0.00,,,0.00,meteobridge,2013-07-25 17:49:00,
2013-07-25 11:54:00,76.5,59.5,29.88,ESE,103,2.9,4.0,56,0.00,,,0.00,meteobridge,2013-07-25 17:54:00,
2013-07-25 11:59:00,76.8,59.4,29.88,SE,128,0.9,4.0,55,0.00,,,0.00,meteobridge,2013-07-25 17:59:00,
2013-07-25 12:04:00,75.7,59.0,29.88,SW,231,2.9,6.0,56,0.00,,,0.00,meteobridge,2013-07-25 18:04:00,
2013-07-25 12:10:00,75.6,59.2,29.88,SW,228,2.9,8.1,57,0.00,,,0.00,meteobridge,2013-07-25 18:10:00,
2013-07-25 12:15:00,75.9,59.5,29.88,SW,217,2.0,6.9,57,0.00,,,0.00,meteobridge,2013-07-25 18:15:00,
2013-07-25 12:20:00,75.9,59.2,29.87,SSW,194,0.9,6.9,56,0.00,,,0.00,meteobridge,2013-07-25 18:20:00,
2013-07-25 12:25:00,75.6,58.8,29.87,WSW,237,0.0,2.9,56,0.00,,,0.00,meteobridge,2013-07-25 18:25:00,
2013-07-25 12:30:00,77.5,60.1,29.87,SW,235,2.9,4.9,55,0.00,,,0.00,meteobridge,2013-07-25 18:30:00,
2013-07-25 12:35:00,77.5,58.5,29.87,WSW,257,4.0,6.9,52,0.00,,,0.00,meteobridge,2013-07-25 18:35:00,
2013-07-25 12:40:00,77.5,57.9,29.87,WNW,285,2.0,2.0,51,0.00,,,0.00,meteobridge,2013-07-25 18:40:00,
2013-07-25 12:45:00,77.7,59.7,29.86,SSE,157,0.9,2.9,54,0.00,,,0.00,meteobridge,2013-07-25 18:45:00,
2013-07-25 12:50:00,78.4,58.8,29.86,WSW,242,2.0,6.9,51,0.00,,,0.00,meteobridge,2013-07-25 18:50:00,
2013-07-25 12:55:00,79.0,58.8,29.86,West,279,0.9,2.9,50,0.00,,,0.00,meteobridge,2013-07-25 18:55:00,
2013-07-25 13:00:00,78.6,59.5,29.86,SE,136,2.0,4.0,52,0.00,,,0.00,meteobridge,2013-07-25 19:00:00,
2013-07-25 13:05:00,78.6,58.5,29.86,SSE,168,4.0,4.9,50,0.00,,,0.00,meteobridge,2013-07-25 19:05:00,
2013-07-25 13:10:00,78.8,59.2,29.86,SSE,158,4.9,6.9,51,0.00,,,0.00,meteobridge,2013-07-25 19:10:00,
2013-07-25 13:15:00,79.5,58.6,29.85,SSW,207,0.9,2.9,49,0.00,,,0.00,meteobridge,2013-07-25 19:15:00,
2013-07-25 13:20:00,79.0,58.1,29.85,SSE,155,6.0,8.9,49,0.00,,,0.00,meteobridge,2013-07-25 19:20:00,
2013-07-25 13:25:00,79.5,59.2,29.85,SE,144,6.0,6.9,50,0.00,,,0.00,meteobridge,2013-07-25 19:25:00,
2013-07-25 13:30:00,80.2,58.1,29.85,South,178,2.9,4.9,47,0.00,,,0.00,meteobridge,2013-07-25 19:30:00,
2013-07-25 13:35:00,80.8,58.6,29.85,South,177,4.0,8.9,47,0.00,,,0.00,meteobridge,2013-07-25 19:35:00,
2013-07-25 13:40:00,80.6,57.9,29.84,ESE,117,4.0,6.0,46,0.00,,,0.00,meteobridge,2013-07-25 19:40:00,
2013-07-25 13:45:00,81.3,57.9,29.84,SW,222,2.0,6.0,45,0.00,,,0.00,meteobridge,2013-07-25 19:45:00,
2013-07-25 13:50:00,81.0,58.8,29.84,SSE,153,4.0,4.9,47,0.00,,,0.00,meteobridge,2013-07-25 19:50:00,
2013-07-25 13:55:00,81.3,57.4,29.83,SSE,153,4.9,8.1,44,0.00,,,0.00,meteobridge,2013-07-25 19:55:00,
2013-07-25 14:00:00,81.1,58.5,29.83,SW,215,0.9,6.9,46,0.00,,,0.00,meteobridge,2013-07-25 20:00:00,
2013-07-25 14:05:00,81.7,58.3,29.83,SE,138,6.0,8.9,45,0.00,,,0.00,meteobridge,2013-07-25 20:05:00,
2013-07-25 14:10:00,81.9,57.7,29.83,SSE,150,2.9,6.0,44,0.00,,,0.00,meteobridge,2013-07-25 20:10:00,
2013-07-25 14:15:00,82.2,58.1,29.83,SE,146,4.0,6.9,44,0.00,,,0.00,meteobridge,2013-07-25 20:15:00,
2013-07-25 14:20:00,82.0,57.4,29.82,SSE,148,0.9,4.9,43,0.00,,,0.00,meteobridge,2013-07-25 20:20:00,
2013-07-25 14:25:00,82.2,57.6,29.82,SW,228,2.9,6.0,43,0.00,,,0.00,meteobridge,2013-07-25 20:25:00,
2013-07-25 14:30:00,82.0,55.9,29.82,South,180,2.9,6.0,41,0.00,,,0.00,meteobridge,2013-07-25 20:30:00,
2013-07-25 14:35:00,81.9,56.5,29.82,South,172,4.0,6.9,42,0.00,,,0.00,meteobridge,2013-07-25 20:35:00,
2013-07-25 14:41:00,82.0,57.4,29.82,WSW,242,2.9,4.0,43,0.00,,,0.00,meteobridge,2013-07-25 20:41:00,
2013-07-25 14:46:00,82.6,57.7,29.81,WSW,245,6.9,6.9,43,0.00,,,0.00,meteobridge,2013-07-25 20:46:00,
2013-07-25 14:51:00,83.5,58.6,29.82,SE,140,4.9,4.9,43,0.00,,,0.00,meteobridge,2013-07-25 20:51:00,
2013-07-25 14:56:00,84.2,58.6,29.81,South,190,2.9,2.9,42,0.00,,,0.00,meteobridge,2013-07-25 20:56:00,
2013-07-25 15:01:00,84.6,58.3,29.81,SW,220,2.0,8.1,41,0.00,,,0.00,meteobridge,2013-07-25 21:01:00,
2013-07-25 15:06:00,84.7,59.2,29.81,SSW,197,0.9,4.9,42,0.00,,,0.00,meteobridge,2013-07-25 21:06:00,
2013-07-25 15:11:00,84.9,58.6,29.81,SSW,204,4.9,6.9,41,0.00,,,0.00,meteobridge,2013-07-25 21:11:00,
2013-07-25 15:16:00,84.7,59.2,29.80,South,175,6.0,8.1,42,0.00,,,0.00,meteobridge,2013-07-25 21:16:00,
2013-07-25 15:21:00,84.9,58.6,29.80,SSE,157,4.0,8.1,41,0.00,,,0.00,meteobridge,2013-07-25 21:21:00,
2013-07-25 15:26:00,84.6,58.3,29.80,South,180,4.0,6.9,41,0.00,,,0.00,meteobridge,2013-07-25 21:26:00,
2013-07-25 15:31:00,84.6,58.3,29.80,SSE,150,0.9,6.0,41,0.00,,,0.00,meteobridge,2013-07-25 21:31:00,
2013-07-25 15:36:00,84.7,57.7,29.79,South,182,4.9,6.9,40,0.00,,,0.00,meteobridge,2013-07-25 21:36:00,
2013-07-25 15:41:00,84.9,58.6,29.79,South,171,2.0,8.1,41,0.00,,,0.00,meteobridge,2013-07-25 21:41:00,
2013-07-25 15:46:00,84.6,57.6,29.79,SSW,193,6.9,6.9,40,0.00,,,0.00,meteobridge,2013-07-25 21:46:00,
2013-07-25 15:51:00,84.2,57.9,29.79,SSW,195,4.9,6.9,41,0.00,,,0.00,meteobridge,2013-07-25 21:51:00,
2013-07-25 15:56:00,84.6,58.3,29.79,SSW,196,4.9,6.9,41,0.00,,,0.00,meteobridge,2013-07-25 21:56:00,
2013-07-25 16:01:00,84.4,57.4,29.78,SSE,160,2.9,4.9,40,0.00,,,0.00,meteobridge,2013-07-25 22:01:00,
2013-07-25 16:06:00,83.8,57.0,29.78,SW,236,2.9,4.9,40,0.00,,,0.00,meteobridge,2013-07-25 22:06:00,
2013-07-25 16:11:00,84.0,57.0,29.78,SSE,164,4.0,4.9,40,0.00,,,0.00,meteobridge,2013-07-25 22:11:00,
2013-07-25 16:16:00,83.8,57.6,29.78,South,191,8.1,8.9,41,0.00,,,0.00,meteobridge,2013-07-25 22:16:00,
2013-07-25 16:21:00,82.9,56.8,29.78,SE,134,4.9,4.9,41,0.00,,,0.00,meteobridge,2013-07-25 22:21:00,
2013-07-25 16:26:00,83.1,57.0,29.77,SSE,157,4.0,4.0,41,0.00,,,0.00,meteobridge,2013-07-25 22:26:00,
2013-07-25 16:31:00,83.7,57.4,29.77,SE,146,4.0,6.0,41,0.00,,,0.00,meteobridge,2013-07-25 22:31:00,
2013-07-25 16:36:00,84.2,57.2,29.77,South,173,2.9,4.0,40,0.00,,,0.00,meteobridge,2013-07-25 22:36:00,
2013-07-25 16:41:00,84.6,56.8,29.77,South,177,0.9,6.9,39,0.00,,,0.00,meteobridge,2013-07-25 22:41:00,
2013-07-25 16:46:00,85.8,57.2,29.76,SE,126,2.9,4.9,38,0.00,,,0.00,meteobridge,2013-07-25 22:46:00,
2013-07-25 16:51:00,86.5,57.9,29.76,SW,221,6.0,6.0,38,0.00,,,0.00,meteobridge,2013-07-25 22:51:00,
2013-07-25 16:56:00,86.0,57.4,29.76,South,171,0.0,8.1,38,0.00,,,0.00,meteobridge,2013-07-25 22:56:00,
2013-07-25 17:01:00,86.9,57.6,29.76,SSW,213,2.0,4.9,37,0.00,,,0.00,meteobridge,2013-07-25 23:01:00,
2013-07-25 17:07:00,87.4,57.9,29.76,SW,217,2.9,6.0,37,0.00,,,0.00,meteobridge,2013-07-25 23:07:00,
2013-07-25 17:12:00,87.1,56.8,29.75,WSW,248,2.9,4.9,36,0.00,,,0.00,meteobridge,2013-07-25 23:12:00,
2013-07-25 17:17:00,86.4,57.0,29.75,SSW,204,2.9,6.0,37,0.00,,,0.00,meteobridge,2013-07-25 23:17:00,
2013-07-25 17:22:00,85.5,56.3,29.75,SE,145,4.0,8.1,37,0.00,,,0.00,meteobridge,2013-07-25 23:22:00,
2013-07-25 17:27:00,84.7,56.3,29.75,ESE,121,2.9,6.9,38,0.00,,,0.00,meteobridge,2013-07-25 23:27:00,
2013-07-25 17:32:00,85.1,56.7,29.75,SE,145,2.9,6.0,38,0.00,,,0.00,meteobridge,2013-07-25 23:32:00,
2013-07-25 17:37:00,85.3,56.8,29.75,SSW,194,4.0,8.1,38,0.00,,,0.00,meteobridge,2013-07-25 23:37:00,
2013-07-25 17:42:00,84.6,56.8,29.75,SW,228,2.0,4.9,39,0.00,,,0.00,meteobridge,2013-07-25 23:42:00,
2013-07-25 17:47:00,83.8,56.3,29.75,SSE,163,4.9,12.1,39,0.00,,,0.00,meteobridge,2013-07-25 23:47:00,
2013-07-25 17:52:00,83.7,57.4,29.74,SSW,209,2.9,6.0,41,0.00,,,0.00,meteobridge,2013-07-25 23:52:00,
2013-07-25 17:57:00,84.4,57.4,29.74,ESE,121,0.9,4.9,40,0.00,,,0.00,meteobridge,2013-07-25 23:57:00,
2013-07-25 18:02:00,84.7,57.0,29.74,SSE,168,0.9,6.9,39,0.00,,,0.00,meteobridge,2013-07-26 00:02:00,
2013-07-25 18:07:00,84.4,57.4,29.74,SSW,198,2.9,6.0,40,0.00,,,0.00,meteobridge,2013-07-26 00:07:00,
2013-07-25 18:12:00,84.2,57.2,29.74,SSW,205,4.9,6.0,40,0.00,,,0.00,meteobridge,2013-07-26 00:12:00,
2013-07-25 18:17:00,83.8,57.6,29.74,SSE,165,4.0,4.9,41,0.00,,,0.00,meteobridge,2013-07-26 00:17:00,
2013-07-25 18:22:00,83.5,57.9,29.74,South,175,2.0,6.9,42,0.00,,,0.00,meteobridge,2013-07-26 00:22:00,
2013-07-25 18:27:00,82.9,57.6,29.74,SW,225,6.0,8.9,42,0.00,,,0.00,meteobridge,2013-07-26 00:27:00,
2013-07-25 18:32:00,82.8,57.9,29.74,SE,134,6.0,6.0,43,0.00,,,0.00,meteobridge,2013-07-26 00:32:00,
2013-07-25 18:37:00,82.6,57.7,29.74,SSW,199,6.9,10.1,43,0.00,,,0.00,meteobridge,2013-07-26 00:37:00,
2013-07-25 18:42:00,82.0,57.4,29.75,SSW,212,4.9,10.1,43,0.00,,,0.00,meteobridge,2013-07-26 00:42:00,
2013-07-25 18:47:00,82.0,57.4,29.75,SSE,159,2.9,10.1,43,0.00,,,0.00,meteobridge,2013-07-26 00:47:00,
2013-07-25 18:52:00,81.9,57.2,29.75,SE,143,2.0,10.1,43,0.00,,,0.00,meteobridge,2013-07-26 00:52:00,
2013-07-25 18:57:00,81.7,57.6,29.75,SSW,211,2.9,6.0,44,0.00,,,0.00,meteobridge,2013-07-26 00:57:00,
2013-07-25 19:02:00,81.7,57.6,29.76,SSE,148,6.9,6.9,44,0.00,,,0.00,meteobridge,2013-07-26 01:02:00,
2013-07-25 19:07:00,81.7,57.6,29.76,SSE,153,6.0,8.9,44,0.00,,,0.00,meteobridge,2013-07-26 01:07:00,
2013-07-25 19:12:00,81.3,57.4,29.76,South,177,6.0,12.1,44,0.00,,,0.00,meteobridge,2013-07-26 01:12:00,
2013-07-25 19:18:00,81.1,57.7,29.76,South,180,6.9,8.1,45,0.00,,,0.00,meteobridge,2013-07-26 01:18:00,
2013-07-25 19:23:00,81.0,57.6,29.76,SSW,212,2.0,4.0,45,0.00,,,0.00,meteobridge,2013-07-26 01:23:00,
2013-07-25 19:28:00,81.0,57.6,29.76,South,180,2.0,6.0,45,0.00,,,0.00,meteobridge,2013-07-26 01:28:00,
2013-07-25 19:33:00,80.8,57.4,29.76,SE,146,4.0,8.9,45,0.00,,,0.00,meteobridge,2013-07-26 01:33:00,
2013-07-25 19:38:00,80.6,57.4,29.76,South,173,2.0,6.9,45,0.00,,,0.00,meteobridge,2013-07-26 01:38:00,
2013-07-25 19:43:00,80.4,57.2,29.76,SSE,161,2.9,8.9,45,0.00,,,0.00,meteobridge,2013-07-26 01:43:00,
2013-07-25 19:48:00,80.2,57.6,29.76,SE,126,4.9,10.1,46,0.00,,,0.00,meteobridge,2013-07-26 01:48:00,
2013-07-25 19:53:00,80.2,57.6,29.76,SSW,205,0.9,8.1,46,0.00,,,0.00,meteobridge,2013-07-26 01:53:00,
2013-07-25 19:58:00,80.1,57.4,29.77,South,180,6.9,8.1,46,0.00,,,0.00,meteobridge,2013-07-26 01:58:00,
2013-07-25 20:03:00,79.9,57.2,29.77,SSW,207,4.0,6.9,46,0.00,,,0.00,meteobridge,2013-07-26 02:03:00,
2013-07-25 20:08:00,79.9,57.9,29.78,South,169,4.0,10.1,47,0.00,,,0.00,meteobridge,2013-07-26 02:08:00,
2013-07-25 20:13:00,79.9,58.5,29.78,SSE,164,4.0,6.9,48,0.00,,,0.00,meteobridge,2013-07-26 02:13:00,
2013-07-25 20:18:00,79.5,58.1,29.78,South,173,2.9,8.9,48,0.00,,,0.00,meteobridge,2013-07-26 02:18:00,
2013-07-25 20:23:00,79.3,58.5,29.78,SE,146,2.9,6.0,49,0.00,,,0.00,meteobridge,2013-07-26 02:23:00,
2013-07-25 20:28:00,79.3,58.5,29.78,SE,146,8.1,8.9,49,0.00,,,0.00,meteobridge,2013-07-26 02:28:00,
2013-07-25 20:33:00,79.2,58.3,29.79,South,174,0.9,6.9,49,0.00,,,0.00,meteobridge,2013-07-26 02:33:00,
2013-07-25 20:38:00,79.2,58.3,29.79,SSE,159,2.0,8.9,49,0.00,,,0.00,meteobridge,2013-07-26 02:38:00,
2013-07-25 20:43:00,79.0,58.1,29.79,SSE,151,6.9,8.1,49,0.00,,,0.00,meteobridge,2013-07-26 02:43:00,
2013-07-25 20:48:00,78.8,58.1,29.79,SSE,161,4.9,8.9,49,0.00,,,0.00,meteobridge,2013-07-26 02:48:00,
2013-07-25 20:53:00,78.6,58.5,29.79,South,169,2.9,4.9,50,0.00,,,0.00,meteobridge,2013-07-26 02:53:00,
2013-07-25 20:58:00,78.4,58.3,29.79,South,169,2.9,6.0,50,0.00,,,0.00,meteobridge,2013-07-26 02:58:00,
2013-07-25 21:03:00,78.4,58.3,29.79,SW,231,2.9,4.9,50,0.00,,,0.00,meteobridge,2013-07-26 03:03:00,
2013-07-25 21:08:00,78.3,58.1,29.79,South,187,2.0,4.0,50,0.00,,,0.00,meteobridge,2013-07-26 03:08:00,
2013-07-25 21:13:00,78.3,58.6,29.80,SSE,155,4.0,8.1,51,0.00,,,0.00,meteobridge,2013-07-26 03:13:00,
2013-07-25 21:18:00,78.1,58.5,29.80,SSE,148,4.9,4.9,51,0.00,,,0.00,meteobridge,2013-07-26 03:18:00,
2013-07-25 21:23:00,78.1,58.5,29.80,SSE,161,6.0,8.1,51,0.00,,,0.00,meteobridge,2013-07-26 03:23:00,
2013-07-25 21:29:00,77.9,58.3,29.80,SSE,147,2.0,6.9,51,0.00,,,0.00,meteobridge,2013-07-26 03:29:00,
2013-07-25 21:34:00,77.7,58.6,29.80,SE,133,6.0,8.1,52,0.00,,,0.00,meteobridge,2013-07-26 03:34:00,
2013-07-25 21:39:00,77.7,58.6,29.80,SSE,149,6.9,6.9,52,0.00,,,0.00,meteobridge,2013-07-26 03:39:00,
2013-07-25 21:44:00,77.7,58.6,29.81,SSE,167,2.0,6.0,52,0.00,,,0.00,meteobridge,2013-07-26 03:44:00,
2013-07-25 21:49:00,77.5,59.0,29.81,SE,144,4.0,8.9,53,0.00,,,0.00,meteobridge,2013-07-26 03:49:00,
2013-07-25 21:54:00,77.4,58.8,29.82,SSE,153,4.9,10.1,53,0.00,,,0.00,meteobridge,2013-07-26 03:54:00,
2013-07-25 21:59:00,77.4,58.8,29.82,SSE,159,4.9,10.1,53,0.00,,,0.00,meteobridge,2013-07-26 03:59:00,
2013-07-25 22:01:00,77.4,58.8,29.82,SSE,167,6.0,8.1,53,0.00,,,0.00,meteobridge,2013-07-26 04:01:00,
2013-07-25 22:07:00,77.4,58.8,29.82,SSE,150,2.9,8.1,53,0.00,,,0.00,meteobridge,2013-07-26 04:07:00,
2013-07-25 22:12:00,77.4,58.8,29.82,ESE,121,8.1,8.1,53,0.00,,,0.00,meteobridge,2013-07-26 04:12:00,
2013-07-25 22:17:00,77.2,58.6,29.82,SE,142,8.1,8.9,53,0.00,,,0.00,meteobridge,2013-07-26 04:17:00,
2013-07-25 22:22:00,77.0,59.0,29.82,South,174,4.9,8.1,54,0.00,,,0.00,meteobridge,2013-07-26 04:22:00,
2013-07-25 22:27:00,76.8,59.0,29.82,SE,140,4.0,10.1,54,0.00,,,0.00,meteobridge,2013-07-26 04:27:00,
2013-07-25 22:32:00,76.8,59.0,29.82,SSE,158,4.9,6.0,54,0.00,,,0.00,meteobridge,2013-07-26 04:32:00,
2013-07-25 22:37:00,76.8,59.0,29.83,SE,126,4.0,4.9,54,0.00,,,0.00,meteobridge,2013-07-26 04:37:00,
2013-07-25 22:42:00,77.2,59.2,29.83,SE,130,4.9,8.1,54,0.00,,,0.00,meteobridge,2013-07-26 04:42:00,
2013-07-25 22:47:00,77.4,58.8,29.83,SE,144,2.9,8.1,53,0.00,,,0.00,meteobridge,2013-07-26 04:47:00,
2013-07-25 22:52:00,77.7,58.6,29.82,ESE,118,2.0,8.9,52,0.00,,,0.00,meteobridge,2013-07-26 04:52:00,
2013-07-25 22:57:00,77.7,58.6,29.83,SSE,153,6.9,8.9,52,0.00,,,0.00,meteobridge,2013-07-26 04:57:00,
2013-07-25 23:02:00,77.7,58.1,29.82,SE,126,6.0,8.9,51,0.00,,,0.00,meteobridge,2013-07-26 05:02:00,
2013-07-25 23:07:00,77.4,57.7,29.81,SSE,165,4.9,8.1,51,0.00,,,0.00,meteobridge,2013-07-26 05:07:00,
2013-07-25 23:12:00,77.2,57.7,29.81,East,98,6.9,8.1,51,0.00,,,0.00,meteobridge,2013-07-26 05:12:00,
2013-07-25 23:17:00,76.8,57.4,29.82,SE,139,4.0,8.1,51,0.00,,,0.00,meteobridge,2013-07-26 05:17:00,
2013-07-25 23:22:00,76.8,57.4,29.82,SE,124,4.9,8.9,51,0.00,,,0.00,meteobridge,2013-07-26 05:22:00,
2013-07-25 23:27:00,76.6,57.2,29.82,SE,127,4.0,4.0,51,0.00,,,0.00,meteobridge,2013-07-26 05:27:00,
2013-07-25 23:32:00,76.6,57.2,29.82,SSE,154,4.0,10.1,51,0.00,,,0.00,meteobridge,2013-07-26 05:32:00,
2013-07-25 23:37:00,76.6,57.7,29.82,SSE,159,2.9,6.0,52,0.00,,,0.00,meteobridge,2013-07-26 05:37:00,
2013-07-25 23:42:00,76.6,57.7,29.82,ESE,120,0.9,2.9,52,0.00,,,0.00,meteobridge,2013-07-26 05:42:00,
2013-07-25 23:47:00,76.6,57.7,29.84,North,355,2.0,2.9,52,0.00,,,0.00,meteobridge,2013-07-26 05:47:00,
2013-07-25 23:52:00,76.1,57.2,29.85,North,5,2.9,8.1,52,0.00,,,0.00,meteobridge,2013-07-26 05:52:00,
2013-07-25 23:57:00,75.4,57.0,29.84,NNW,344,4.9,6.9,53,0.00,,,0.00,meteobridge,2013-07-26 05:57:00,